Time,TemperatureF,DewpointF,PressureIn,WindDirection,WindDirectionDegrees,WindSpeedMPH,WindSpeedGustMPH,Humidity,HourlyPrecipIn,Conditions,Clouds,dailyrainin,SoftwareType,DateUTC
2013-11-08 00:02:00,48.9,36.9,30.32,NE,45,4.0,7.0,63,0.00,,,0.00,meteohub,2013-11-08 06:02:00,
2013-11-08 00:07:00,48.9,36.9,30.32,NE,45,4.0,7.0,63,0.00,,,0.00,meteohub,2013-11-08 06:07:00,
2013-11-08 00:12:00,48.7,36.7,30.32,NE,45,2.0,4.0,63,0.00,,,0.00,meteohub,2013-11-08 06:12:00,
2013-11-08 00:17:00,48.6,36.5,30.32,North,0,4.0,5.0,63,0.00,,,0.00,meteohub,2013-11-08 06:17:00,
2013-11-08 00:22:00,48.6,36.5,30.32,East,90,4.0,5.0,63,0.00,,,0.00,meteohub,2013-11-08 06:22:00,
2013-11-08 00:27:00,48.4,36.7,30.32,NW,315,2.0,6.0,64,0.00,,,0.00,meteohub,2013-11-08 06:27:00,
2013-11-08 00:32:00,48.2,36.7,30.32,North,0,3.0,6.0,64,0.00,,,0.00,meteohub,2013-11-08 06:32:00,
2013-11-08 00:37:00,48.2,36.7,30.32,NNE,23,2.0,6.0,64,0.00,,,0.00,meteohub,2013-11-08 06:37:00,
2013-11-08 00:42:00,48.0,36.9,30.32,NE,45,4.0,6.0,65,0.00,,,0.00,meteohub,2013-11-08 06:42:00,
2013-11-08 00:47:00,47.8,36.7,30.32,NNE,23,8.0,8.0,65,0.00,,,0.00,meteohub,2013-11-08 06:47:00,
2013-11-08 00:52:00,47.8,36.7,30.32,NE,45,3.0,8.0,65,0.00,,,0.00,meteohub,2013-11-08 06:52:00,
2013-11-08 00:57:00,47.5,36.3,30.32,North,0,4.0,8.0,65,0.00,,,0.00,meteohub,2013-11-08 06:57:00,
2013-11-08 01:02:00,47.5,36.3,30.31,North,0,2.0,8.0,65,0.00,,,0.00,meteohub,2013-11-08 07:02:00,
2013-11-08 01:07:00,47.5,36.3,30.31,North,0,2.0,4.0,65,0.00,,,0.00,meteohub,2013-11-08 07:07:00,
2013-11-08 01:12:00,47.3,36.5,30.32,NW,315,2.0,4.0,66,0.00,,,0.00,meteohub,2013-11-08 07:12:00,
2013-11-08 01:17:00,47.1,36.3,30.32,NE,45,4.0,4.0,66,0.00,,,0.00,meteohub,2013-11-08 07:17:00,
2013-11-08 01:22:00,46.9,36.1,30.32,North,0,2.0,5.0,66,0.00,,,0.00,meteohub,2013-11-08 07:22:00,
2013-11-08 01:27:00,46.8,36.0,30.32,NNE,23,3.0,5.0,66,0.00,,,0.00,meteohub,2013-11-08 07:27:00,
2013-11-08 01:32:00,46.8,36.0,30.32,NE,45,4.0,5.0,66,0.00,,,0.00,meteohub,2013-11-08 07:32:00,
2013-11-08 01:37:00,46.8,36.0,30.31,North,0,2.0,5.0,66,0.00,,,0.00,meteohub,2013-11-08 07:37:00,
2013-11-08 01:42:00,46.6,35.8,30.31,North,0,2.0,5.0,66,0.00,,,0.00,meteohub,2013-11-08 07:42:00,
2013-11-08 01:47:00,46.6,35.8,30.30,North,0,2.0,5.0,66,0.00,,,0.00,meteohub,2013-11-08 07:47:00,
2013-11-08 01:57:00,46.6,35.8,30.30,NNW,338,7.0,7.0,66,0.00,,,0.00,meteohub,2013-11-08 07:57:00,
2013-11-08 02:02:00,46.4,35.6,30.31,North,0,4.0,8.0,66,0.00,,,0.00,meteohub,2013-11-08 08:02:00,
2013-11-08 02:07:00,46.4,35.6,30.31,North,0,4.0,8.0,66,0.00,,,0.00,meteohub,2013-11-08 08:07:00,
2013-11-08 02:12:00,46.4,35.6,30.31,North,0,2.0,8.0,66,0.00,,,0.00,meteohub,2013-11-08 08:12:00,
2013-11-08 02:17:00,46.4,35.6,30.32,North,0,4.0,4.0,66,0.00,,,0.00,meteohub,2013-11-08 08:17:00,
2013-11-08 02:22:00,46.0,35.2,30.31,North,0,2.0,4.0,66,0.00,,,0.00,meteohub,2013-11-08 08:22:00,
2013-11-08 02:27:00,46.0,35.2,30.31,North,0,3.0,4.0,66,0.00,,,0.00,meteohub,2013-11-08 08:27:00,
2013-11-08 02:32:00,45.9,35.6,30.31,North,0,2.0,4.0,67,0.00,,,0.00,meteohub,2013-11-08 08:32:00,
2013-11-08 02:37:00,45.9,35.6,30.31,North,0,2.0,4.0,67,0.00,,,0.00,meteohub,2013-11-08 08:37:00,
2013-11-08 02:42:00,45.7,35.4,30.31,NE,45,2.0,5.0,67,0.00,,,0.00,meteohub,2013-11-08 08:42:00,
2013-11-08 02:47:00,45.7,35.4,30.31,NNE,23,2.0,5.0,67,0.00,,,0.00,meteohub,2013-11-08 08:47:00,
2013-11-08 02:52:00,45.5,35.2,30.31,North,0,3.0,4.0,67,0.00,,,0.00,meteohub,2013-11-08 08:52:00,
2013-11-08 02:57:00,45.5,35.2,30.31,NNW,338,2.0,5.0,67,0.00,,,0.00,meteohub,2013-11-08 08:57:00,
2013-11-08 03:02:00,45.5,35.2,30.31,North,0,2.0,5.0,67,0.00,,,0.00,meteohub,2013-11-08 09:02:00,
2013-11-08 03:07:00,45.5,35.2,30.31,North,0,2.0,5.0,67,0.00,,,0.00,meteohub,2013-11-08 09:07:00,
2013-11-08 03:12:00,45.5,34.9,30.30,NE,45,3.0,4.0,66,0.00,,,0.00,meteohub,2013-11-08 09:12:00,
2013-11-08 03:17:00,45.5,34.9,30.31,NNE,23,4.0,6.0,66,0.00,,,0.00,meteohub,2013-11-08 09:17:00,
2013-11-08 03:22:00,45.5,34.9,30.31,North,0,2.0,6.0,66,0.00,,,0.00,meteohub,2013-11-08 09:22:00,
2013-11-08 03:27:00,45.3,34.7,30.31,North,0,3.0,6.0,66,0.00,,,0.00,meteohub,2013-11-08 09:27:00,
2013-11-08 03:32:00,45.3,34.7,30.30,NE,45,3.0,7.0,66,0.00,,,0.00,meteohub,2013-11-08 09:32:00,
2013-11-08 03:42:00,45.3,34.7,30.31,North,0,2.0,7.0,66,0.00,,,0.00,meteohub,2013-11-08 09:42:00,
2013-11-08 03:47:00,45.3,34.7,30.31,NE,45,3.0,5.0,66,0.00,,,0.00,meteohub,2013-11-08 09:47:00,
2013-11-08 03:52:00,45.3,34.7,30.31,North,0,2.0,4.0,66,0.00,,,0.00,meteohub,2013-11-08 09:52:00,
2013-11-08 03:57:00,45.1,34.5,30.31,North,0,2.0,4.0,66,0.00,,,0.00,meteohub,2013-11-08 09:57:00,
2013-11-08 04:02:00,45.0,34.3,30.31,NW,315,2.0,3.0,66,0.00,,,0.00,meteohub,2013-11-08 10:02:00,
2013-11-08 04:07:00,45.0,34.3,30.30,NW,315,2.0,3.0,66,0.00,,,0.00,meteohub,2013-11-08 10:07:00,
2013-11-08 04:12:00,45.0,34.3,30.30,NW,315,4.0,4.0,66,0.00,,,0.00,meteohub,2013-11-08 10:12:00,
2013-11-08 04:17:00,45.0,34.3,30.31,North,0,3.0,4.0,66,0.00,,,0.00,meteohub,2013-11-08 10:17:00,
2013-11-08 04:22:00,45.0,34.3,30.31,NE,45,4.0,4.0,66,0.00,,,0.00,meteohub,2013-11-08 10:22:00,
2013-11-08 04:27:00,44.8,34.2,30.32,NE,45,3.0,4.0,66,0.00,,,0.00,meteohub,2013-11-08 10:27:00,
2013-11-08 04:32:00,44.8,34.2,30.31,North,0,4.0,4.0,66,0.00,,,0.00,meteohub,2013-11-08 10:32:00,
2013-11-08 04:37:00,44.8,34.2,30.31,North,0,4.0,4.0,66,0.00,,,0.00,meteohub,2013-11-08 10:37:00,
2013-11-08 04:42:00,44.8,34.2,30.31,NE,45,4.0,5.0,66,0.00,,,0.00,meteohub,2013-11-08 10:42:00,
2013-11-08 04:47:00,44.6,34.0,30.32,NE,45,2.0,5.0,66,0.00,,,0.00,meteohub,2013-11-08 10:47:00,
2013-11-08 04:52:00,44.6,34.3,30.32,North,0,5.0,5.0,67,0.00,,,0.00,meteohub,2013-11-08 10:52:00,
2013-11-08 04:57:00,44.6,34.0,30.32,East,90,2.0,5.0,66,0.00,,,0.00,meteohub,2013-11-08 10:57:00,
2013-11-08 05:02:00,44.6,34.3,30.31,NE,45,2.0,5.0,67,0.00,,,0.00,meteohub,2013-11-08 11:02:00,
2013-11-08 05:07:00,44.6,34.3,30.32,NE,45,2.0,5.0,67,0.00,,,0.00,meteohub,2013-11-08 11:07:00,
2013-11-08 05:12:00,44.6,34.0,30.32,North,0,1.0,4.0,66,0.00,,,0.00,meteohub,2013-11-08 11:12:00,
2013-11-08 05:17:00,44.6,34.0,30.32,NE,45,2.0,4.0,66,0.00,,,0.00,meteohub,2013-11-08 11:17:00,
2013-11-08 05:22:00,44.6,34.0,30.32,NNW,338,2.0,4.0,66,0.00,,,0.00,meteohub,2013-11-08 11:22:00,
2013-11-08 05:27:00,44.4,33.8,30.33,North,0,2.0,5.0,66,0.00,,,0.00,meteohub,2013-11-08 11:27:00,
2013-11-08 05:32:00,44.4,33.8,30.33,North,0,4.0,5.0,66,0.00,,,0.00,meteohub,2013-11-08 11:32:00,
2013-11-08 05:37:00,44.8,34.2,30.33,NNE,23,4.0,4.0,66,0.00,,,0.00,meteohub,2013-11-08 11:37:00,
2013-11-08 05:42:00,44.6,34.0,30.33,North,0,5.0,6.0,66,0.00,,,0.00,meteohub,2013-11-08 11:42:00,
2013-11-08 05:47:00,44.6,34.0,30.32,North,0,3.0,6.0,66,0.00,,,0.00,meteohub,2013-11-08 11:47:00,
2013-11-08 05:52:00,44.6,34.0,30.32,NE,45,3.0,5.0,66,0.00,,,0.00,meteohub,2013-11-08 11:52:00,
2013-11-08 05:57:00,44.6,34.0,30.33,North,0,3.0,5.0,66,0.00,,,0.00,meteohub,2013-11-08 11:57:00,
2013-11-08 06:02:00,44.4,33.8,30.32,ESE,113,4.0,5.0,66,0.00,,,0.00,meteohub,2013-11-08 12:02:00,
2013-11-08 06:12:00,44.4,34.2,30.33,North,0,3.0,4.0,67,0.00,,,0.00,meteohub,2013-11-08 12:12:00,
2013-11-08 06:17:00,44.2,34.0,30.34,NW,315,4.0,4.0,67,0.00,,,0.00,meteohub,2013-11-08 12:17:00,
2013-11-08 06:22:00,44.1,33.8,30.34,NW,315,3.0,4.0,67,0.00,,,0.00,meteohub,2013-11-08 12:22:00,
2013-11-08 06:27:00,44.1,33.8,30.35,NE,45,2.0,4.0,67,0.00,,,0.00,meteohub,2013-11-08 12:27:00,
2013-11-08 06:32:00,43.9,33.6,30.35,North,0,2.0,4.0,67,0.00,,,0.00,meteohub,2013-11-08 12:32:00,
2013-11-08 06:37:00,44.1,34.2,30.35,North,0,2.0,4.0,68,0.00,,,0.00,meteohub,2013-11-08 12:37:00,
2013-11-08 06:42:00,43.9,34.0,30.35,North,0,2.0,4.0,68,0.00,,,0.00,meteohub,2013-11-08 12:42:00,
2013-11-08 06:47:00,44.1,34.2,30.34,NE,45,2.0,4.0,68,0.00,,,0.00,meteohub,2013-11-08 12:47:00,
2013-11-08 06:52:00,44.1,34.2,30.34,North,0,2.0,3.0,68,0.00,,,0.00,meteohub,2013-11-08 12:52:00,
2013-11-08 06:57:00,44.1,34.2,30.34,East,90,2.0,4.0,68,0.00,,,0.00,meteohub,2013-11-08 12:57:00,
2013-11-08 07:02:00,44.4,34.9,30.34,SE,135,4.0,4.0,69,0.00,,,0.00,meteohub,2013-11-08 13:02:00,
2013-11-08 07:07:00,44.4,34.9,30.34,SE,135,4.0,4.0,69,0.00,,,0.00,meteohub,2013-11-08 13:07:00,
2013-11-08 07:12:00,46.2,35.4,30.34,NNW,338,5.0,5.0,66,0.00,,,0.00,meteohub,2013-11-08 13:12:00,
2013-11-08 07:17:00,46.9,35.8,30.35,East,90,5.0,5.0,65,0.00,,,0.00,meteohub,2013-11-08 13:17:00,
2013-11-08 07:22:00,47.3,34.9,30.35,North,0,4.0,7.0,62,0.00,,,0.00,meteohub,2013-11-08 13:22:00,
2013-11-08 07:27:00,47.1,34.3,30.35,NE,45,2.0,7.0,61,0.00,,,0.00,meteohub,2013-11-08 13:27:00,
2013-11-08 07:32:00,47.3,34.2,30.35,East,90,5.0,8.0,60,0.00,,,0.00,meteohub,2013-11-08 13:32:00,
2013-11-08 07:37:00,47.5,33.8,30.35,ENE,68,5.0,9.0,59,0.00,,,0.00,meteohub,2013-11-08 13:37:00,
2013-11-08 07:42:00,47.7,33.3,30.35,NE,45,5.0,9.0,57,0.00,,,0.00,meteohub,2013-11-08 13:42:00,
2013-11-08 07:47:00,47.8,32.9,30.35,East,90,8.0,10.0,56,0.00,,,0.00,meteohub,2013-11-08 13:47:00,
2013-11-08 07:52:00,48.0,33.1,30.35,East,90,4.0,10.0,56,0.00,,,0.00,meteohub,2013-11-08 13:52:00,
2013-11-08 07:57:00,48.2,32.4,30.35,East,90,5.0,9.0,54,0.00,,,0.00,meteohub,2013-11-08 13:57:00,
2013-11-08 08:02:00,48.2,32.7,30.35,North,0,3.0,9.0,55,0.00,,,0.00,meteohub,2013-11-08 14:02:00,
2013-11-08 08:07:00,48.2,32.7,30.36,North,0,3.0,8.0,55,0.00,,,0.00,meteohub,2013-11-08 14:07:00,
2013-11-08 08:12:00,50.0,32.5,30.36,East,90,5.0,8.0,51,0.00,,,0.00,meteohub,2013-11-08 14:12:00,
2013-11-08 08:17:00,50.5,32.0,30.36,NE,45,6.0,9.0,49,0.00,,,0.00,meteohub,2013-11-08 14:17:00,
2013-11-08 08:22:00,51.1,32.0,30.37,SE,135,3.0,9.0,48,0.00,,,0.00,meteohub,2013-11-08 14:22:00,
2013-11-08 08:27:00,51.6,30.4,30.36,ENE,68,9.0,9.0,44,0.00,,,0.00,meteohub,2013-11-08 14:27:00,
2013-11-08 08:32:00,51.6,30.4,30.36,NE,45,4.0,16.0,44,0.00,,,0.00,meteohub,2013-11-08 14:32:00,
2013-11-08 08:42:00,53.1,29.3,30.36,East,90,8.0,11.0,40,0.00,,,0.00,meteohub,2013-11-08 14:42:00,
2013-11-08 08:47:00,53.1,28.8,30.36,NE,45,8.0,11.0,39,0.00,,,0.00,meteohub,2013-11-08 14:47:00,
2013-11-08 08:52:00,53.2,29.5,30.36,North,0,4.0,11.0,40,0.00,,,0.00,meteohub,2013-11-08 14:52:00,
2013-11-08 08:57:00,53.8,29.5,30.36,NE,45,5.0,11.0,39,0.00,,,0.00,meteohub,2013-11-08 14:57:00,
2013-11-08 09:02:00,54.3,29.3,30.36,North,0,4.0,11.0,38,0.00,,,0.00,meteohub,2013-11-08 15:02:00,
2013-11-08 09:07:00,54.3,29.3,30.36,North,0,4.0,8.0,38,0.00,,,0.00,meteohub,2013-11-08 15:07:00,
2013-11-08 09:12:00,55.8,29.1,30.35,East,90,10.0,10.0,36,0.00,,,0.00,meteohub,2013-11-08 15:12:00,
2013-11-08 09:17:00,55.9,26.4,30.36,North,0,10.0,10.0,32,0.00,,,0.00,meteohub,2013-11-08 15:17:00,
2013-11-08 09:22:00,56.3,26.8,30.35,NE,45,10.0,11.0,32,0.00,,,0.00,meteohub,2013-11-08 15:22:00,
2013-11-08 09:27:00,55.9,27.3,30.35,SE,135,5.0,12.0,33,0.00,,,0.00,meteohub,2013-11-08 15:27:00,
2013-11-08 09:32:00,55.9,26.4,30.35,SW,225,7.0,12.0,32,0.00,,,0.00,meteohub,2013-11-08 15:32:00,
2013-11-08 09:37:00,55.9,26.4,30.35,NNE,23,5.0,12.0,32,0.00,,,0.00,meteohub,2013-11-08 15:37:00,
2013-11-08 09:42:00,56.5,27.7,30.35,East,90,4.0,12.0,33,0.00,,,0.00,meteohub,2013-11-08 15:42:00,
2013-11-08 09:47:00,56.3,27.5,30.35,South,180,4.0,12.0,33,0.00,,,0.00,meteohub,2013-11-08 15:47:00,
2013-11-08 09:52:00,57.2,29.1,30.35,East,90,8.0,12.0,34,0.00,,,0.00,meteohub,2013-11-08 15:52:00,
2013-11-08 09:57:00,57.4,24.6,30.35,SE,135,17.0,17.0,28,0.00,,,0.00,meteohub,2013-11-08 15:57:00,
2013-11-08 10:02:00,57.4,24.6,30.35,East,90,8.0,17.0,28,0.00,,,0.00,meteohub,2013-11-08 16:02:00,
2013-11-08 10:07:00,57.4,24.6,30.36,East,90,8.0,17.0,28,0.00,,,0.00,meteohub,2013-11-08 16:07:00,
2013-11-08 10:17:00,58.1,25.2,30.35,NE,45,12.0,13.0,28,0.00,,,0.00,meteohub,2013-11-08 16:17:00,
2013-11-08 10:22:00,58.5,26.2,30.35,North,0,5.0,15.0,29,0.00,,,0.00,meteohub,2013-11-08 16:22:00,
2013-11-08 10:27:00,58.8,24.1,30.35,NE,45,12.0,15.0,26,0.00,,,0.00,meteohub,2013-11-08 16:27:00,
2013-11-08 10:32:00,59.2,26.1,30.35,South,180,7.0,15.0,28,0.00,,,0.00,meteohub,2013-11-08 16:32:00,
2013-11-08 10:37:00,59.4,26.2,30.35,East,90,5.0,12.0,28,0.00,,,0.00,meteohub,2013-11-08 16:37:00,
2013-11-08 10:42:00,60.1,26.1,30.35,SE,135,11.0,12.0,27,0.00,,,0.00,meteohub,2013-11-08 16:42:00,
2013-11-08 10:47:00,60.1,26.8,30.34,NE,45,5.0,13.0,28,0.00,,,0.00,meteohub,2013-11-08 16:47:00,
2013-11-08 10:52:00,60.3,26.1,30.34,East,90,4.0,13.0,27,0.00,,,0.00,meteohub,2013-11-08 16:52:00,
2013-11-08 10:57:00,60.8,24.8,30.33,NE,45,12.0,12.0,25,0.00,,,0.00,meteohub,2013-11-08 16:57:00,
2013-11-08 11:02:00,60.8,24.8,30.32,North,0,9.0,17.0,25,0.00,,,0.00,meteohub,2013-11-08 17:02:00,
2013-11-08 11:07:00,60.8,24.8,30.33,North,0,9.0,17.0,25,0.00,,,0.00,meteohub,2013-11-08 17:07:00,
2013-11-08 11:12:00,61.0,23.9,30.32,East,90,4.0,17.0,24,0.00,,,0.00,meteohub,2013-11-08 17:12:00,
2013-11-08 11:17:00,61.5,24.4,30.32,East,90,3.0,15.0,24,0.00,,,0.00,meteohub,2013-11-08 17:17:00,
2013-11-08 11:22:00,61.3,18.7,30.32,East,90,15.0,15.0,19,0.00,,,0.00,meteohub,2013-11-08 17:22:00,
2013-11-08 11:27:00,61.3,19.9,30.32,East,90,8.0,15.0,20,0.00,,,0.00,meteohub,2013-11-08 17:27:00,
2013-11-08 11:32:00,61.3,21.0,30.32,East,90,12.0,15.0,21,0.00,,,0.00,meteohub,2013-11-08 17:32:00,
2013-11-08 11:37:00,61.2,19.8,30.31,NE,45,10.0,15.0,20,0.00,,,0.00,meteohub,2013-11-08 17:37:00,
2013-11-08 11:47:00,61.7,20.1,30.30,East,90,10.0,14.0,20,0.00,,,0.00,meteohub,2013-11-08 17:47:00,
2013-11-08 11:52:00,61.7,17.8,30.30,ESE,113,11.0,13.0,18,0.00,,,0.00,meteohub,2013-11-08 17:52:00,
2013-11-08 11:57:00,61.7,20.1,30.30,East,90,5.0,15.0,20,0.00,,,0.00,meteohub,2013-11-08 17:57:00,
2013-11-08 12:02:00,61.9,20.3,30.30,ESE,113,9.0,15.0,20,0.00,,,0.00,meteohub,2013-11-08 18:02:00,
2013-11-08 12:07:00,61.9,21.6,30.29,ESE,113,4.0,15.0,21,0.00,,,0.00,meteohub,2013-11-08 18:07:00,
2013-11-08 12:12:00,62.2,19.4,30.29,NE,45,7.0,11.0,19,0.00,,,0.00,meteohub,2013-11-08 18:12:00,
2013-11-08 12:17:00,62.2,23.0,30.29,East,90,4.0,11.0,22,0.00,,,0.00,meteohub,2013-11-08 18:17:00,
2013-11-08 12:22:00,62.8,21.0,30.29,North,0,8.0,11.0,20,0.00,,,0.00,meteohub,2013-11-08 18:22:00,
2013-11-08 12:27:00,62.6,21.0,30.28,NE,45,6.0,12.0,20,0.00,,,0.00,meteohub,2013-11-08 18:27:00,
2013-11-08 12:32:00,63.0,21.2,30.28,NW,315,11.0,12.0,20,0.00,,,0.00,meteohub,2013-11-08 18:32:00,
2013-11-08 12:37:00,62.8,19.9,30.27,NE,45,6.0,12.0,19,0.00,,,0.00,meteohub,2013-11-08 18:37:00,
2013-11-08 12:42:00,63.3,21.6,30.27,North,0,8.0,11.0,20,0.00,,,0.00,meteohub,2013-11-08 18:42:00,
2013-11-08 12:52:00,63.0,21.2,30.27,ENE,68,8.0,11.0,20,0.00,,,0.00,meteohub,2013-11-08 18:52:00,
2013-11-08 12:57:00,63.1,21.4,30.26,NE,45,4.0,10.0,20,0.00,,,0.00,meteohub,2013-11-08 18:57:00,
2013-11-08 13:02:00,63.7,20.7,30.25,NE,45,5.0,10.0,19,0.00,,,0.00,meteohub,2013-11-08 19:02:00,
2013-11-08 13:07:00,63.7,19.4,30.25,NE,45,10.0,10.0,18,0.00,,,0.00,meteohub,2013-11-08 19:07:00,
2013-11-08 13:12:00,63.5,19.2,30.25,East,90,10.0,12.0,18,0.00,,,0.00,meteohub,2013-11-08 19:12:00,
2013-11-08 13:17:00,63.9,19.6,30.25,North,0,7.0,12.0,18,0.00,,,0.00,meteohub,2013-11-08 19:17:00,
2013-11-08 13:22:00,64.2,21.0,30.25,NE,45,6.0,12.0,19,0.00,,,0.00,meteohub,2013-11-08 19:22:00,
2013-11-08 13:27:00,64.2,21.0,30.24,SE,135,5.0,11.0,19,0.00,,,0.00,meteohub,2013-11-08 19:27:00,
2013-11-08 13:32:00,64.0,19.6,30.24,NE,45,4.0,11.0,18,0.00,,,0.00,meteohub,2013-11-08 19:32:00,
2013-11-08 13:37:00,64.2,19.8,30.24,NW,315,8.0,8.0,18,0.00,,,0.00,meteohub,2013-11-08 19:37:00,
2013-11-08 13:42:00,64.4,18.7,30.24,NE,45,4.0,8.0,17,0.00,,,0.00,meteohub,2013-11-08 19:42:00,
2013-11-08 13:47:00,64.6,18.9,30.24,NE,45,10.0,10.0,17,0.00,,,0.00,meteohub,2013-11-08 19:47:00,
2013-11-08 13:52:00,64.6,20.1,30.24,ENE,68,8.0,10.0,18,0.00,,,0.00,meteohub,2013-11-08 19:52:00,
2013-11-08 13:57:00,64.8,18.9,30.23,ENE,68,4.0,10.0,17,0.00,,,0.00,meteohub,2013-11-08 19:57:00,
2013-11-08 14:02:00,64.8,18.9,30.23,East,90,6.0,10.0,17,0.00,,,0.00,meteohub,2013-11-08 20:02:00,
2013-11-08 14:07:00,65.1,19.2,30.23,East,90,8.0,9.0,17,0.00,,,0.00,meteohub,2013-11-08 20:07:00,
2013-11-08 14:12:00,65.3,18.0,30.23,NE,45,11.0,11.0,16,0.00,,,0.00,meteohub,2013-11-08 20:12:00,
2013-11-08 14:17:00,65.5,19.6,30.23,North,0,11.0,11.0,17,0.00,,,0.00,meteohub,2013-11-08 20:17:00,
2013-11-08 14:22:00,65.5,18.1,30.23,NNE,23,8.0,11.0,16,0.00,,,0.00,meteohub,2013-11-08 20:22:00,
2013-11-08 14:27:00,65.5,19.6,30.23,North,0,6.0,11.0,17,0.00,,,0.00,meteohub,2013-11-08 20:27:00,
2013-11-08 14:32:00,65.5,20.8,30.22,NE,45,8.0,11.0,18,0.00,,,0.00,meteohub,2013-11-08 20:32:00,
2013-11-08 14:37:00,65.7,21.0,30.23,North,0,8.0,11.0,18,0.00,,,0.00,meteohub,2013-11-08 20:37:00,
2013-11-08 14:42:00,65.7,21.0,30.23,East,90,7.0,11.0,18,0.00,,,0.00,meteohub,2013-11-08 20:42:00,
2013-11-08 14:47:00,65.8,22.5,30.22,North,0,5.0,11.0,19,0.00,,,0.00,meteohub,2013-11-08 20:47:00,
2013-11-08 14:52:00,65.8,22.5,30.22,North,0,5.0,11.0,19,0.00,,,0.00,meteohub,2013-11-08 20:52:00,
2013-11-08 14:57:00,65.1,19.2,30.22,NE,45,8.0,9.0,17,0.00,,,0.00,meteohub,2013-11-08 20:57:00,
2013-11-08 15:02:00,64.9,17.6,30.22,NW,315,8.0,8.0,16,0.00,,,0.00,meteohub,2013-11-08 21:02:00,
2013-11-08 15:07:00,64.9,17.6,30.22,NW,315,8.0,11.0,16,0.00,,,0.00,meteohub,2013-11-08 21:07:00,
2013-11-08 15:12:00,65.1,19.2,30.22,North,0,5.0,11.0,17,0.00,,,0.00,meteohub,2013-11-08 21:12:00,
2013-11-08 15:22:00,64.9,20.5,30.22,NE,45,4.0,8.0,18,0.00,,,0.00,meteohub,2013-11-08 21:22:00,
2013-11-08 15:27:00,64.6,21.4,30.22,North,0,6.0,9.0,19,0.00,,,0.00,meteohub,2013-11-08 21:27:00,
2013-11-08 15:32:00,64.4,22.5,30.22,NE,45,9.0,9.0,20,0.00,,,0.00,meteohub,2013-11-08 21:32:00,
2013-11-08 15:37:00,64.4,22.5,30.22,North,0,4.0,9.0,20,0.00,,,0.00,meteohub,2013-11-08 21:37:00,
2013-11-08 15:42:00,64.4,23.5,30.22,North,0,5.0,9.0,21,0.00,,,0.00,meteohub,2013-11-08 21:42:00,
2013-11-08 15:47:00,64.6,23.7,30.22,NW,315,4.0,9.0,21,0.00,,,0.00,meteohub,2013-11-08 21:47:00,
2013-11-08 15:52:00,64.6,23.7,30.22,East,90,6.0,8.0,21,0.00,,,0.00,meteohub,2013-11-08 21:52:00,
2013-11-08 15:57:00,64.2,22.3,30.22,NE,45,5.0,7.0,20,0.00,,,0.00,meteohub,2013-11-08 21:57:00,
2013-11-08 16:02:00,64.0,22.1,30.23,North,0,4.0,8.0,20,0.00,,,0.00,meteohub,2013-11-08 22:02:00,
2013-11-08 16:07:00,64.0,22.1,30.22,North,0,4.0,8.0,20,0.00,,,0.00,meteohub,2013-11-08 22:07:00,
2013-11-08 16:12:00,63.3,21.6,30.23,East,90,6.0,8.0,20,0.00,,,0.00,meteohub,2013-11-08 22:12:00,
2013-11-08 16:17:00,63.0,21.2,30.22,NE,45,6.0,6.0,20,0.00,,,0.00,meteohub,2013-11-08 22:17:00,
2013-11-08 16:22:00,63.0,23.5,30.23,North,0,2.0,6.0,22,0.00,,,0.00,meteohub,2013-11-08 22:22:00,
2013-11-08 16:27:00,62.6,24.3,30.22,North,0,2.0,6.0,23,0.00,,,0.00,meteohub,2013-11-08 22:27:00,
2013-11-08 16:32:00,62.4,25.2,30.22,North,0,2.0,6.0,24,0.00,,,0.00,meteohub,2013-11-08 22:32:00,
2013-11-08 16:37:00,62.1,26.8,30.23,North,0,2.0,3.0,26,0.00,,,0.00,meteohub,2013-11-08 22:37:00,
2013-11-08 16:42:00,61.5,27.1,30.23,North,0,0.0,2.0,27,0.00,,,0.00,meteohub,2013-11-08 22:42:00,
2013-11-08 16:47:00,61.3,27.1,30.22,North,0,1.0,2.0,27,0.00,,,0.00,meteohub,2013-11-08 22:47:00,
2013-11-08 16:52:00,61.0,27.7,30.22,NE,45,1.0,2.0,28,0.00,,,0.00,meteohub,2013-11-08 22:52:00,
2013-11-08 16:57:00,60.8,28.4,30.23,NE,45,0.0,2.0,29,0.00,,,0.00,meteohub,2013-11-08 22:57:00,
2013-11-08 17:02:00,60.6,28.2,30.22,NE,45,0.0,2.0,29,0.00,,,0.00,meteohub,2013-11-08 23:02:00,
2013-11-08 17:07:00,60.6,28.2,30.22,NE,45,0.0,2.0,29,0.00,,,0.00,meteohub,2013-11-08 23:07:00,
2013-11-08 17:12:00,59.9,30.0,30.22,NE,45,0.0,0.0,32,0.00,,,0.00,meteohub,2013-11-08 23:12:00,
2013-11-08 17:17:00,59.5,29.7,30.22,NE,45,0.0,0.0,32,0.00,,,0.00,meteohub,2013-11-08 23:17:00,
2013-11-08 17:22:00,59.4,30.9,30.22,NE,45,0.0,0.0,34,0.00,,,0.00,meteohub,2013-11-08 23:22:00,
2013-11-08 17:27:00,59.0,31.5,30.23,NE,45,1.0,0.0,35,0.00,,,0.00,meteohub,2013-11-08 23:27:00,
2013-11-08 17:32:00,58.5,31.6,30.22,NE,45,0.0,2.0,36,0.00,,,0.00,meteohub,2013-11-08 23:32:00,
2013-11-08 17:37:00,58.3,31.5,30.23,NE,45,0.0,2.0,36,0.00,,,0.00,meteohub,2013-11-08 23:37:00,
2013-11-08 17:42:00,57.7,31.6,30.22,NE,45,0.0,2.0,37,0.00,,,0.00,meteohub,2013-11-08 23:42:00,
2013-11-08 17:47:00,57.6,32.2,30.22,NE,45,0.0,1.0,38,0.00,,,0.00,meteohub,2013-11-08 23:47:00,
2013-11-08 17:52:00,57.2,33.1,30.22,NE,45,0.0,0.0,40,0.00,,,0.00,meteohub,2013-11-08 23:52:00,
2013-11-08 17:57:00,56.8,32.7,30.22,NE,45,0.0,0.0,40,0.00,,,0.00,meteohub,2013-11-08 23:57:00,
2013-11-08 18:07:00,56.7,33.3,30.21,NE,45,1.0,1.0,41,0.00,,,0.00,meteohub,2013-11-09 00:07:00,
2013-11-08 18:17:00,56.1,35.1,30.21,East,90,0.0,2.0,45,0.00,,,0.00,meteohub,2013-11-09 00:17:00,
2013-11-08 18:22:00,55.9,34.9,30.22,ENE,68,0.0,2.0,45,0.00,,,0.00,meteohub,2013-11-09 00:22:00,
2013-11-08 18:27:00,55.8,34.7,30.22,ENE,68,1.0,1.0,45,0.00,,,0.00,meteohub,2013-11-09 00:27:00,
2013-11-08 18:32:00,55.9,35.4,30.21,North,0,2.0,2.0,46,0.00,,,0.00,meteohub,2013-11-09 00:32:00,
2013-11-08 18:37:00,55.9,35.4,30.22,SE,135,3.0,3.0,46,0.00,,,0.00,meteohub,2013-11-09 00:37:00,
2013-11-08 18:42:00,56.3,35.8,30.22,NE,45,3.0,3.0,46,0.00,,,0.00,meteohub,2013-11-09 00:42:00,
2013-11-08 18:47:00,56.3,35.2,30.22,SW,225,0.0,3.0,45,0.00,,,0.00,meteohub,2013-11-09 00:47:00,
2013-11-08 18:52:00,56.3,35.2,30.22,SW,225,1.0,3.0,45,0.00,,,0.00,meteohub,2013-11-09 00:52:00,
2013-11-08 18:57:00,56.3,35.8,30.22,West,270,0.0,3.0,46,0.00,,,0.00,meteohub,2013-11-09 00:57:00,
2013-11-08 19:02:00,56.3,35.8,30.23,West,270,0.0,2.0,46,0.00,,,0.00,meteohub,2013-11-09 01:02:00,
2013-11-08 19:07:00,56.3,35.8,30.23,West,270,0.0,2.0,46,0.00,,,0.00,meteohub,2013-11-09 01:07:00,
2013-11-08 19:12:00,55.8,35.2,30.23,NE,45,1.0,2.0,46,0.00,,,0.00,meteohub,2013-11-09 01:12:00,
2013-11-08 19:17:00,55.8,35.8,30.23,NE,45,1.0,2.0,47,0.00,,,0.00,meteohub,2013-11-09 01:17:00,
2013-11-08 19:22:00,55.4,36.0,30.23,NE,45,0.0,2.0,48,0.00,,,0.00,meteohub,2013-11-09 01:22:00,
2013-11-08 19:27:00,55.0,35.8,30.23,NE,45,0.0,2.0,48,0.00,,,0.00,meteohub,2013-11-09 01:27:00,
2013-11-08 19:32:00,54.7,36.0,30.23,NE,45,0.0,1.0,49,0.00,,,0.00,meteohub,2013-11-09 01:32:00,
2013-11-08 19:37:00,54.5,36.3,30.24,NE,45,0.0,0.0,50,0.00,,,0.00,meteohub,2013-11-09 01:37:00,
2013-11-08 19:42:00,54.0,35.8,30.24,NE,45,0.0,2.0,50,0.00,,,0.00,meteohub,2013-11-09 01:42:00,
2013-11-08 19:47:00,53.6,36.3,30.23,NE,45,0.0,2.0,52,0.00,,,0.00,meteohub,2013-11-09 01:47:00,
2013-11-08 19:52:00,53.4,36.7,30.23,East,90,2.0,2.0,53,0.00,,,0.00,meteohub,2013-11-09 01:52:00,
2013-11-08 19:57:00,53.2,37.0,30.24,NE,45,0.0,2.0,54,0.00,,,0.00,meteohub,2013-11-09 01:57:00,
2013-11-08 20:02:00,52.9,36.7,30.23,NE,45,0.0,2.0,54,0.00,,,0.00,meteohub,2013-11-09 02:02:00,
2013-11-08 20:07:00,52.9,36.7,30.23,NE,45,0.0,2.0,54,0.00,,,0.00,meteohub,2013-11-09 02:07:00,
2013-11-08 20:12:00,52.3,36.7,30.23,East,90,0.0,0.0,55,0.00,,,0.00,meteohub,2013-11-09 02:12:00,
2013-11-08 20:17:00,52.0,36.9,30.23,East,90,0.0,0.0,56,0.00,,,0.00,meteohub,2013-11-09 02:17:00,
2013-11-08 20:22:00,51.6,36.9,30.24,East,90,0.0,0.0,57,0.00,,,0.00,meteohub,2013-11-09 02:22:00,
2013-11-08 20:27:00,51.4,37.2,30.24,East,90,0.0,0.0,58,0.00,,,0.00,meteohub,2013-11-09 02:27:00,
2013-11-08 20:32:00,51.1,37.2,30.24,East,90,0.0,0.0,59,0.00,,,0.00,meteohub,2013-11-09 02:32:00,
2013-11-08 20:37:00,50.9,37.0,30.24,East,90,0.0,0.0,59,0.00,,,0.00,meteohub,2013-11-09 02:37:00,
2013-11-08 20:42:00,50.7,37.4,30.24,East,90,0.0,0.0,60,0.00,,,0.00,meteohub,2013-11-09 02:42:00,
2013-11-08 20:47:00,50.5,37.6,30.24,East,90,0.0,0.0,61,0.00,,,0.00,meteohub,2013-11-09 02:47:00,
2013-11-08 20:52:00,50.4,37.8,30.24,East,90,0.0,0.0,62,0.00,,,0.00,meteohub,2013-11-09 02:52:00,
2013-11-08 20:57:00,50.4,38.3,30.23,East,90,2.0,2.0,63,0.00,,,0.00,meteohub,2013-11-09 02:57:00,
2013-11-08 21:02:00,50.4,38.7,30.23,East,90,2.0,2.0,64,0.00,,,0.00,meteohub,2013-11-09 03:02:00,
2013-11-08 21:07:00,50.4,38.7,30.23,East,90,2.0,2.0,64,0.00,,,0.00,meteohub,2013-11-09 03:07:00,
2013-11-08 21:17:00,50.2,39.2,30.23,East,90,2.0,2.0,66,0.00,,,0.00,meteohub,2013-11-09 03:17:00,
2013-11-08 21:22:00,50.2,39.2,30.23,NE,45,2.0,2.0,66,0.00,,,0.00,meteohub,2013-11-09 03:22:00,
2013-11-08 21:27:00,50.2,39.2,30.23,NE,45,2.0,2.0,66,0.00,,,0.00,meteohub,2013-11-09 03:27:00,
2013-11-08 21:32:00,50.2,39.2,30.23,East,90,2.0,2.0,66,0.00,,,0.00,meteohub,2013-11-09 03:32:00,
2013-11-08 21:37:00,50.0,39.0,30.23,NE,45,1.0,2.0,66,0.00,,,0.00,meteohub,2013-11-09 03:37:00,
2013-11-08 21:42:00,49.8,39.4,30.23,NE,45,1.0,2.0,67,0.00,,,0.00,meteohub,2013-11-09 03:42:00,
2013-11-08 21:47:00,50.0,39.0,30.22,East,90,0.0,2.0,66,0.00,,,0.00,meteohub,2013-11-09 03:47:00,
2013-11-08 21:52:00,49.8,38.8,30.22,East,90,0.0,2.0,66,0.00,,,0.00,meteohub,2013-11-09 03:52:00,
2013-11-08 21:57:00,49.6,38.7,30.22,East,90,0.0,2.0,66,0.00,,,0.00,meteohub,2013-11-09 03:57:00,
2013-11-08 22:02:00,49.6,39.2,30.22,East,90,0.0,0.0,67,0.00,,,0.00,meteohub,2013-11-09 04:02:00,
2013-11-08 22:07:00,49.6,39.2,30.22,East,90,0.0,0.0,67,0.00,,,0.00,meteohub,2013-11-09 04:07:00,
2013-11-08 22:17:00,49.5,39.0,30.22,South,180,0.0,2.0,67,0.00,,,0.00,meteohub,2013-11-09 04:17:00,
2013-11-08 22:22:00,49.3,38.8,30.22,South,180,1.0,2.0,67,0.00,,,0.00,meteohub,2013-11-09 04:22:00,
2013-11-08 22:27:00,49.1,39.0,30.22,South,180,0.0,2.0,68,0.00,,,0.00,meteohub,2013-11-09 04:27:00,
2013-11-08 22:37:00,48.6,38.5,30.22,South,180,0.0,1.0,68,0.00,,,0.00,meteohub,2013-11-09 04:37:00,
2013-11-08 22:42:00,48.6,38.5,30.22,South,180,0.0,1.0,68,0.00,,,0.00,meteohub,2013-11-09 04:42:00,
2013-11-08 22:47:00,48.2,38.5,30.22,South,180,0.0,0.0,69,0.00,,,0.00,meteohub,2013-11-09 04:47:00,
2013-11-08 22:52:00,48.2,38.5,30.22,South,180,0.0,0.0,69,0.00,,,0.00,meteohub,2013-11-09 04:52:00,
2013-11-08 23:02:00,48.2,38.8,30.21,NE,45,2.0,2.0,70,0.00,,,0.00,meteohub,2013-11-09 05:02:00,
2013-11-08 23:07:00,48.2,38.8,30.21,NE,45,2.0,2.0,70,0.00,,,0.00,meteohub,2013-11-09 05:07:00,
2013-11-08 23:12:00,47.7,38.3,30.21,NE,45,0.0,2.0,70,0.00,,,0.00,meteohub,2013-11-09 05:12:00,
2013-11-08 23:17:00,47.5,38.1,30.21,NE,45,0.0,2.0,70,0.00,,,0.00,meteohub,2013-11-09 05:17:00,
2013-11-08 23:22:00,47.3,38.3,30.20,NE,45,0.0,2.0,71,0.00,,,0.00,meteohub,2013-11-09 05:22:00,
2013-11-08 23:27:00,47.1,38.1,30.20,NE,45,0.0,1.0,71,0.00,,,0.00,meteohub,2013-11-09 05:27:00,
2013-11-08 23:32:00,47.1,38.1,30.21,NE,45,0.0,1.0,71,0.00,,,0.00,meteohub,2013-11-09 05:32:00,
2013-11-08 23:37:00,46.9,38.1,30.20,NE,45,0.0,2.0,71,0.00,,,0.00,meteohub,2013-11-09 05:37:00,
2013-11-08 23:42:00,46.8,37.9,30.21,NE,45,0.0,2.0,71,0.00,,,0.00,meteohub,2013-11-09 05:42:00,
2013-11-08 23:47:00,46.8,38.3,30.21,NE,45,0.0,2.0,72,0.00,,,0.00,meteohub,2013-11-09 05:47:00,
2013-11-08 23:52:00,46.6,38.1,30.21,NE,45,0.0,1.0,72,0.00,,,0.00,meteohub,2013-11-09 05:52:00,